M/V Raymond M. — WDC4224 — position and weather

sailwx.info

Track history (hours):
 
Tides and Currents Weather Stations Pressure Air Temp Water Temp Dewpoint Dewpoint Depression Visibility Wind Speed Wind Dir Waves Ship Positions

M/V Raymond M.

Owner: RM Leasing, Clute, TX. More information available from US FCC via Universal Licensing System and Coast Guard Vessel Documentation Center.

Last reported at 2018-May-21 04:09 UTC. Time now 2018-May-21 09:09 UTC.
Position N 29°49' W 093°20'.

Length 45 m; draft 2.2 m.

Type: Passenger vessel. MMSI: 367021170.

Date/timePositionNaut miles runAvg speedWind from/ knotsBaromVisibWave heightAir tempDewpointWater temp
2018-May-21 04:09N 29°49' W 093°20'  
2018-May-18 13:58N 28°21' W 094°06'0 0.0
2018-May-18 12:40N 28°21' W 094°06'0 0.4
2018-May-18 12:27N 28°21' W 094°06'2217.8
2018-May-18 11:12N 28°41' W 093°56'418.1
2018-May-18 10:58N 28°45' W 093°54'818.1
2018-May-18 10:30N 28°53' W 093°50'918.1
2018-May-18 10:00N 29°01' W 093°46'1117.9
2018-May-18 09:23N 29°11' W 093°40'1117.4
2018-May-18 08:46N 29°20' W 093°34'517.5
2018-May-18 08:28N 29°25' W 093°31'817.2
2018-May-18 08:00N 29°32' W 093°27'917.5
2018-May-18 07:30N 29°40' W 093°22'715.0
2018-May-18 07:00N 29°47' W 093°21'1 1.2
2018-May-18 06:27N 29°48' W 093°21'0 0.0
2018-May-18 05:51N 29°48' W 093°21'0 0.0
2018-May-18 05:24N 29°48' W 093°21'0 0.0
2018-May-18 04:33N 29°48' W 093°21'1 8.8
2018-May-18 04:26N 29°49' W 093°21'0 0.2
2018-May-18 03:07N 29°49' W 093°20'1 5.6
2018-May-18 02:58N 29°49' W 093°21'0 0.6
2018-May-18 02:15N 29°48' W 093°21'1 1.0
2018-May-18 01:25N 29°48' W 093°20'2 3.6
2018-May-18 00:59N 29°49' W 093°21'1 2.9
2018-May-18 00:30N 29°48' W 093°21'611.6
2018-May-18 00:00N 29°42' W 093°22'917.6
2018-May-17 23:30N 29°35' W 093°28'917.7
2018-May-17 23:00N 29°27' W 093°34'5 7.8
2018-May-17 22:22N 29°24' W 093°37'1 2.0
2018-May-17 21:37N 29°22' W 093°38'0 0.1
2018-May-17 21:28N 29°22' W 093°38'1914.7
2018-May-17 20:12N 29°38' W 093°26'13 6.8
2018-May-17 18:21N 29°49' W 093°20'1 0.1
2018-May-17 05:59N 29°48' W 093°21'1 0.8
2018-May-17 04:55N 29°49' W 093°21'1 0.1
2018-May-16 22:02N 29°48' W 093°21'0 0.0
2018-May-16 21:59N 29°48' W 093°21'0 0.0
2018-May-16 21:26N 29°48' W 093°21'0 0.0
2018-May-16 20:59N 29°48' W 093°21'0 0.0
2018-May-16 19:26N 29°48' W 093°21'0 0.0
2018-May-16 18:59N 29°48' W 093°21'0 0.0
2018-May-16 14:02N 29°48' W 093°21'0 0.0
2018-May-16 13:47N 29°48' W 093°21'0 0.0
2018-May-16 13:29N 29°48' W 093°21'0 0.0
2018-May-16 12:59N 29°48' W 093°21'0 0.0
2018-May-16 12:23N 29°48' W 093°21'0 0.0
2018-May-16 11:56N 29°48' W 093°21'0 0.0
2018-May-16 11:23N 29°48' W 093°21'0 0.0
2018-May-16 10:59N 29°48' W 093°21'510.5
2018-May-16 10:30N 29°43' W 093°21'816.9
2018-May-16 10:00N 29°38' W 093°29'918.3
2018-May-16 09:30N 29°34' W 093°38'918.6
2018-May-16 09:00N 29°30' W 093°48'1018.7
2018-May-16 08:30N 29°27' W 093°58'918.5
2018-May-16 08:00N 29°23' W 094°08'919.0
2018-May-16 07:30N 29°19' W 094°18'1019.3
2018-May-16 07:00N 29°16' W 094°28'612.0
2018-May-16 06:31N 29°14' W 094°34'816.1
2018-May-16 06:01N 29°17' W 094°26'918.4
2018-May-16 05:30N 29°20' W 094°16'918.4
2018-May-16 05:01N 29°24' W 094°06'918.0
2018-May-16 04:30N 29°27' W 093°57'1017.6
2018-May-16 03:57N 29°31' W 093°46'917.5
2018-May-16 03:26N 29°35' W 093°37'817.4
2018-May-16 02:59N 29°39' W 093°29'917.5
2018-May-16 02:29N 29°43' W 093°21'612.6
2018-May-16 01:59N 29°49' W 093°20'1 0.4
2018-May-15 22:59N 29°48' W 093°21'1 0.6
2018-May-15 20:47N 29°49' W 093°20'11 2.1
2018-May-15 15:19N 29°40' W 093°28'618.0
2018-May-15 15:00N 29°37' W 093°33'918.8
2018-May-15 14:30N 29°33' W 093°43'918.6
2018-May-15 14:00N 29°29' W 093°53'918.7
2018-May-15 13:30N 29°25' W 094°02'918.5
2018-May-15 13:00N 29°22' W 094°12'1118.9
2018-May-15 12:25N 29°17' W 094°24'615.2
2018-May-15 11:59N 29°15' W 094°31'4 7.0
2018-May-15 11:29N 29°14' W 094°35'2 1.5
2018-May-15 10:26N 29°15' W 094°35'1 1.1
2018-May-15 09:48N 29°15' W 094°34'1 1.2
2018-May-15 09:03N 29°14' W 094°33'0 0.7
2018-May-15 08:43N 29°14' W 094°33'1 2.1
2018-May-15 08:11N 29°14' W 094°35'2 7.5
2018-May-15 07:59N 29°13' W 094°33'1018.9
2018-May-15 07:28N 29°12' W 094°22'918.7
2018-May-15 07:00N 29°11' W 094°12'918.7
2018-May-15 06:30N 29°09' W 094°02'1019.1
2018-May-15 05:59N 29°08' W 093°50'1019.7
2018-May-15 05:29N 29°07' W 093°39'920.0
2018-May-15 05:00N 29°05' W 093°28'5719.9
2018-May-15 02:10N 28°57' W 092°24'420.2
2018-May-15 01:58N 28°57' W 092°20'919.9
2018-May-15 01:30N 28°55' W 092°09'  
Track history (hours):
 
Tides and Currents Weather Stations Pressure Air Temp Water Temp Dewpoint Dewpoint Depression Visibility Wind Speed Wind Dir Waves Ship Positions

M/V Raymond M.

Owner: RM Leasing, Clute, TX. More information available from US FCC via Universal Licensing System and Coast Guard Vessel Documentation Center.

Last reported at 2018-May-21 04:09 UTC. Time now 2018-May-21 09:09 UTC.
Position N 29°49' W 093°20'.

Length 45 m; draft 2.2 m.

Type: Passenger vessel. MMSI: 367021170.

Date/timePositionNaut miles runAvg speedWind from/ knotsBaromVisibWave heightAir tempDewpointWater temp
2018-May-21 04:09N 29°49' W 093°20'  
2018-May-18 13:58N 28°21' W 094°06'0 0.0
2018-May-18 12:40N 28°21' W 094°06'0 0.4
2018-May-18 12:27N 28°21' W 094°06'2217.8
2018-May-18 11:12N 28°41' W 093°56'418.1
2018-May-18 10:58N 28°45' W 093°54'818.1
2018-May-18 10:30N 28°53' W 093°50'918.1
2018-May-18 10:00N 29°01' W 093°46'1117.9
2018-May-18 09:23N 29°11' W 093°40'1117.4
2018-May-18 08:46N 29°20' W 093°34'517.5
2018-May-18 08:28N 29°25' W 093°31'817.2
2018-May-18 08:00N 29°32' W 093°27'917.5
2018-May-18 07:30N 29°40' W 093°22'715.0
2018-May-18 07:00N 29°47' W 093°21'1 1.2
2018-May-18 06:27N 29°48' W 093°21'0 0.0
2018-May-18 05:51N 29°48' W 093°21'0 0.0
2018-May-18 05:24N 29°48' W 093°21'0 0.0
2018-May-18 04:33N 29°48' W 093°21'1 8.8
2018-May-18 04:26N 29°49' W 093°21'0 0.2
2018-May-18 03:07N 29°49' W 093°20'1 5.6
2018-May-18 02:58N 29°49' W 093°21'0 0.6
2018-May-18 02:15N 29°48' W 093°21'1 1.0
2018-May-18 01:25N 29°48' W 093°20'2 3.6
2018-May-18 00:59N 29°49' W 093°21'1 2.9
2018-May-18 00:30N 29°48' W 093°21'611.6
2018-May-18 00:00N 29°42' W 093°22'917.6
2018-May-17 23:30N 29°35' W 093°28'917.7
2018-May-17 23:00N 29°27' W 093°34'5 7.8
2018-May-17 22:22N 29°24' W 093°37'1 2.0
2018-May-17 21:37N 29°22' W 093°38'0 0.1
2018-May-17 21:28N 29°22' W 093°38'1914.7
2018-May-17 20:12N 29°38' W 093°26'13 6.8
2018-May-17 18:21N 29°49' W 093°20'1 0.1
2018-May-17 05:59N 29°48' W 093°21'1 0.8
2018-May-17 04:55N 29°49' W 093°21'1 0.1
2018-May-16 22:02N 29°48' W 093°21'0 0.0
2018-May-16 21:59N 29°48' W 093°21'0 0.0
2018-May-16 21:26N 29°48' W 093°21'0 0.0
2018-May-16 20:59N 29°48' W 093°21'0 0.0
2018-May-16 19:26N 29°48' W 093°21'0 0.0
2018-May-16 18:59N 29°48' W 093°21'0 0.0
2018-May-16 14:02N 29°48' W 093°21'0 0.0
2018-May-16 13:47N 29°48' W 093°21'0 0.0
2018-May-16 13:29N 29°48' W 093°21'0 0.0
2018-May-16 12:59N 29°48' W 093°21'0 0.0
2018-May-16 12:23N 29°48' W 093°21'0 0.0
2018-May-16 11:56N 29°48' W 093°21'0 0.0
2018-May-16 11:23N 29°48' W 093°21'0 0.0
2018-May-16 10:59N 29°48' W 093°21'510.5
2018-May-16 10:30N 29°43' W 093°21'816.9
2018-May-16 10:00N 29°38' W 093°29'918.3
2018-May-16 09:30N 29°34' W 093°38'918.6
2018-May-16 09:00N 29°30' W 093°48'1018.7
2018-May-16 08:30N 29°27' W 093°58'918.5
2018-May-16 08:00N 29°23' W 094°08'919.0
2018-May-16 07:30N 29°19' W 094°18'1019.3
2018-May-16 07:00N 29°16' W 094°28'612.0
2018-May-16 06:31N 29°14' W 094°34'816.1
2018-May-16 06:01N 29°17' W 094°26'918.4
2018-May-16 05:30N 29°20' W 094°16'918.4
2018-May-16 05:01N 29°24' W 094°06'918.0
2018-May-16 04:30N 29°27' W 093°57'1017.6
2018-May-16 03:57N 29°31' W 093°46'917.5
2018-May-16 03:26N 29°35' W 093°37'817.4
2018-May-16 02:59N 29°39' W 093°29'917.5
2018-May-16 02:29N 29°43' W 093°21'612.6
2018-May-16 01:59N 29°49' W 093°20'1 0.4
2018-May-15 22:59N 29°48' W 093°21'1 0.6
2018-May-15 20:47N 29°49' W 093°20'11 2.1
2018-May-15 15:19N 29°40' W 093°28'618.0
2018-May-15 15:00N 29°37' W 093°33'918.8
2018-May-15 14:30N 29°33' W 093°43'918.6
2018-May-15 14:00N 29°29' W 093°53'918.7
2018-May-15 13:30N 29°25' W 094°02'918.5
2018-May-15 13:00N 29°22' W 094°12'1118.9
2018-May-15 12:25N 29°17' W 094°24'615.2
2018-May-15 11:59N 29°15' W 094°31'4 7.0
2018-May-15 11:29N 29°14' W 094°35'2 1.5
2018-May-15 10:26N 29°15' W 094°35'1 1.1
2018-May-15 09:48N 29°15' W 094°34'1 1.2
2018-May-15 09:03N 29°14' W 094°33'0 0.7
2018-May-15 08:43N 29°14' W 094°33'1 2.1
2018-May-15 08:11N 29°14' W 094°35'2 7.5
2018-May-15 07:59N 29°13' W 094°33'1018.9
2018-May-15 07:28N 29°12' W 094°22'918.7
2018-May-15 07:00N 29°11' W 094°12'918.7
2018-May-15 06:30N 29°09' W 094°02'1019.1
2018-May-15 05:59N 29°08' W 093°50'1019.7
2018-May-15 05:29N 29°07' W 093°39'920.0
2018-May-15 05:00N 29°05' W 093°28'5719.9
2018-May-15 02:10N 28°57' W 092°24'420.2
2018-May-15 01:58N 28°57' W 092°20'919.9
2018-May-15 01:30N 28°55' W 092°09'  

Dump ship's entire track history